sensor_id;sensor_type;location;lat;lon;timestamp;P1;durP1;ratioP1;P2;durP2;ratioP2
65463;SDS011;52063;45.110;9.870;2023-06-22T00:00:50;8.70;;;5.78;;
65463;SDS011;52063;45.110;9.870;2023-06-22T00:03:20;10.50;;;5.70;;
65463;SDS011;52063;45.110;9.870;2023-06-22T00:05:46;8.47;;;5.63;;
65463;SDS011;52063;45.110;9.870;2023-06-22T00:08:12;11.95;;;5.53;;
65463;SDS011;52063;45.110;9.870;2023-06-22T00:10:38;11.98;;;5.90;;
65463;SDS011;52063;45.110;9.870;2023-06-22T00:13:04;7.73;;;5.60;;
65463;SDS011;52063;45.110;9.870;2023-06-22T00:15:30;6.75;;;5.15;;
65463;SDS011;52063;45.110;9.870;2023-06-22T00:17:56;6.97;;;5.90;;
65463;SDS011;52063;45.110;9.870;2023-06-22T00:20:22;10.07;;;6.30;;
65463;SDS011;52063;45.110;9.870;2023-06-22T00:22:48;8.15;;;6.78;;
65463;SDS011;52063;45.110;9.870;2023-06-22T00:25:13;11.83;;;6.93;;
65463;SDS011;52063;45.110;9.870;2023-06-22T00:27:39;9.13;;;5.83;;
65463;SDS011;52063;45.110;9.870;2023-06-22T00:30:05;10.77;;;6.13;;
65463;SDS011;52063;45.110;9.870;2023-06-22T00:32:31;9.35;;;6.35;;
65463;SDS011;52063;45.110;9.870;2023-06-22T00:34:57;9.97;;;6.47;;
65463;SDS011;52063;45.110;9.870;2023-06-22T00:37:22;7.53;;;5.87;;
65463;SDS011;52063;45.110;9.870;2023-06-22T00:39:52;8.87;;;6.93;;
65463;SDS011;52063;45.110;9.870;2023-06-22T00:42:18;8.27;;;5.72;;
65463;SDS011;52063;45.110;9.870;2023-06-22T00:44:44;9.53;;;6.97;;
65463;SDS011;52063;45.110;9.870;2023-06-22T00:47:10;10.65;;;7.43;;
65463;SDS011;52063;45.110;9.870;2023-06-22T00:49:38;6.88;;;6.15;;
65463;SDS011;52063;45.110;9.870;2023-06-22T00:52:04;10.07;;;6.50;;
65463;SDS011;52063;45.110;9.870;2023-06-22T00:54:37;8.13;;;5.67;;
65463;SDS011;52063;45.110;9.870;2023-06-22T00:57:02;10.63;;;7.10;;
65463;SDS011;52063;45.110;9.870;2023-06-22T00:59:28;9.43;;;5.75;;
65463;SDS011;52063;45.110;9.870;2023-06-22T01:01:54;9.03;;;6.30;;
65463;SDS011;52063;45.110;9.870;2023-06-22T01:04:21;9.02;;;6.18;;
65463;SDS011;52063;45.110;9.870;2023-06-22T01:06:54;8.98;;;5.97;;
65463;SDS011;52063;45.110;9.870;2023-06-22T01:09:27;7.97;;;7.10;;
65463;SDS011;52063;45.110;9.870;2023-06-22T01:11:57;11.23;;;6.40;;
65463;SDS011;52063;45.110;9.870;2023-06-22T01:14:28;9.77;;;5.35;;
65463;SDS011;52063;45.110;9.870;2023-06-22T01:17:01;9.07;;;6.13;;
65463;SDS011;52063;45.110;9.870;2023-06-22T01:19:39;8.75;;;6.38;;
65463;SDS011;52063;45.110;9.870;2023-06-22T01:22:12;9.90;;;6.00;;
65463;SDS011;52063;45.110;9.870;2023-06-22T01:30:11;10.48;;;6.47;;
65463;SDS011;52063;45.110;9.870;2023-06-22T01:32:39;9.20;;;6.40;;
65463;SDS011;52063;45.110;9.870;2023-06-22T01:35:06;11.23;;;7.00;;
65463;SDS011;52063;45.110;9.870;2023-06-22T01:37:33;13.73;;;6.78;;
65463;SDS011;52063;45.110;9.870;2023-06-22T01:40:00;8.00;;;5.68;;
65463;SDS011;52063;45.110;9.870;2023-06-22T01:42:27;10.52;;;7.05;;
65463;SDS011;52063;45.110;9.870;2023-06-22T01:44:53;9.47;;;6.37;;
65463;SDS011;52063;45.110;9.870;2023-06-22T01:47:19;14.23;;;7.28;;
65463;SDS011;52063;45.110;9.870;2023-06-22T01:49:46;8.70;;;6.50;;
65463;SDS011;52063;45.110;9.870;2023-06-22T01:52:11;15.87;;;8.00;;
65463;SDS011;52063;45.110;9.870;2023-06-22T01:54:37;9.40;;;7.50;;
65463;SDS011;52063;45.110;9.870;2023-06-22T01:57:05;10.23;;;6.87;;
65463;SDS011;52063;45.110;9.870;2023-06-22T01:59:32;10.15;;;7.30;;
65463;SDS011;52063;45.110;9.870;2023-06-22T02:02:04;12.48;;;6.72;;
65463;SDS011;52063;45.110;9.870;2023-06-22T02:04:37;9.25;;;7.55;;
65463;SDS011;52063;45.110;9.870;2023-06-22T02:07:05;10.18;;;6.85;;
65463;SDS011;52063;45.110;9.870;2023-06-22T02:09:34;8.57;;;6.97;;
65463;SDS011;52063;45.110;9.870;2023-06-22T02:12:00;13.30;;;7.88;;
65463;SDS011;52063;45.110;9.870;2023-06-22T02:14:28;11.75;;;8.07;;
65463;SDS011;52063;45.110;9.870;2023-06-22T02:16:54;8.82;;;6.20;;
65463;SDS011;52063;45.110;9.870;2023-06-22T02:19:23;12.90;;;6.70;;
65463;SDS011;52063;45.110;9.870;2023-06-22T02:21:49;8.63;;;6.50;;
65463;SDS011;52063;45.110;9.870;2023-06-22T02:24:15;13.52;;;7.25;;
65463;SDS011;52063;45.110;9.870;2023-06-22T02:26:40;9.57;;;5.90;;
65463;SDS011;52063;45.110;9.870;2023-06-22T02:29:07;10.60;;;6.60;;
65463;SDS011;52063;45.110;9.870;2023-06-22T02:31:33;8.77;;;6.77;;
65463;SDS011;52063;45.110;9.870;2023-06-22T02:33:59;14.68;;;7.00;;
65463;SDS011;52063;45.110;9.870;2023-06-22T02:36:25;9.90;;;5.90;;
65463;SDS011;52063;45.110;9.870;2023-06-22T02:38:52;10.23;;;6.50;;
65463;SDS011;52063;45.110;9.870;2023-06-22T02:41:19;10.90;;;7.55;;
65463;SDS011;52063;45.110;9.870;2023-06-22T02:43:45;8.88;;;7.50;;
65463;SDS011;52063;45.110;9.870;2023-06-22T02:46:11;12.95;;;7.20;;
65463;SDS011;52063;45.110;9.870;2023-06-22T02:48:39;6.50;;;5.60;;
65463;SDS011;52063;45.110;9.870;2023-06-22T02:51:05;11.10;;;7.30;;
65463;SDS011;52063;45.110;9.870;2023-06-22T02:53:33;8.48;;;5.72;;
65463;SDS011;52063;45.110;9.870;2023-06-22T02:56:00;8.70;;;6.63;;
65463;SDS011;52063;45.110;9.870;2023-06-22T02:58:29;9.47;;;6.07;;
65463;SDS011;52063;45.110;9.870;2023-06-22T03:00:54;8.07;;;5.40;;
65463;SDS011;52063;45.110;9.870;2023-06-22T03:03:20;6.43;;;5.30;;
65463;SDS011;52063;45.110;9.870;2023-06-22T03:05:46;6.03;;;4.90;;
65463;SDS011;52063;45.110;9.870;2023-06-22T03:08:11;8.23;;;5.20;;
65463;SDS011;52063;45.110;9.870;2023-06-22T03:10:37;4.95;;;4.40;;
65463;SDS011;52063;45.110;9.870;2023-06-22T03:13:02;5.63;;;5.03;;
65463;SDS011;52063;45.110;9.870;2023-06-22T03:15:29;6.53;;;5.05;;
65463;SDS011;52063;45.110;9.870;2023-06-22T03:17:56;7.90;;;5.20;;
65463;SDS011;52063;45.110;9.870;2023-06-22T03:20:23;6.33;;;4.50;;
65463;SDS011;52063;45.110;9.870;2023-06-22T03:22:50;7.45;;;4.80;;
65463;SDS011;52063;45.110;9.870;2023-06-22T03:25:16;6.20;;;4.60;;
65463;SDS011;52063;45.110;9.870;2023-06-22T03:27:45;7.20;;;4.40;;
65463;SDS011;52063;45.110;9.870;2023-06-22T03:30:11;5.43;;;4.57;;
65463;SDS011;52063;45.110;9.870;2023-06-22T03:32:37;4.90;;;4.40;;
65463;SDS011;52063;45.110;9.870;2023-06-22T03:35:04;7.97;;;4.65;;
65463;SDS011;52063;45.110;9.870;2023-06-22T03:37:32;5.25;;;4.75;;
65463;SDS011;52063;45.110;9.870;2023-06-22T03:39:58;5.37;;;4.90;;
65463;SDS011;52063;45.110;9.870;2023-06-22T03:42:24;4.88;;;4.45;;
65463;SDS011;52063;45.110;9.870;2023-06-22T03:44:49;5.40;;;4.90;;
65463;SDS011;52063;45.110;9.870;2023-06-22T03:47:15;5.88;;;4.57;;
65463;SDS011;52063;45.110;9.870;2023-06-22T03:49:40;5.00;;;4.40;;
65463;SDS011;52063;45.110;9.870;2023-06-22T03:52:06;5.23;;;4.40;;
65463;SDS011;52063;45.110;9.870;2023-06-22T03:54:31;5.88;;;4.75;;
65463;SDS011;52063;45.110;9.870;2023-06-22T03:56:57;5.83;;;4.80;;
65463;SDS011;52063;45.110;9.870;2023-06-22T03:59:23;5.47;;;4.55;;
65463;SDS011;52063;45.110;9.870;2023-06-22T04:01:49;5.32;;;4.57;;
65463;SDS011;52063;45.110;9.870;2023-06-22T04:04:15;8.57;;;5.55;;
65463;SDS011;52063;45.110;9.870;2023-06-22T04:06:43;5.90;;;4.23;;
65463;SDS011;52063;45.110;9.870;2023-06-22T04:09:08;7.68;;;4.70;;
65463;SDS011;52063;45.110;9.870;2023-06-22T04:11:34;5.57;;;4.70;;
65463;SDS011;52063;45.110;9.870;2023-06-22T04:13:59;5.77;;;4.63;;
65463;SDS011;52063;45.110;9.870;2023-06-22T04:16:25;5.07;;;4.55;;
65463;SDS011;52063;45.110;9.870;2023-06-22T04:18:51;8.33;;;5.00;;
65463;SDS011;52063;45.110;9.870;2023-06-22T04:21:16;5.13;;;4.13;;
65463;SDS011;52063;45.110;9.870;2023-06-22T04:23:42;5.00;;;4.60;;
65463;SDS011;52063;45.110;9.870;2023-06-22T04:26:08;6.47;;;4.38;;
65463;SDS011;52063;45.110;9.870;2023-06-22T04:28:33;7.30;;;4.73;;
65463;SDS011;52063;45.110;9.870;2023-06-22T04:31:03;6.20;;;4.60;;
65463;SDS011;52063;45.110;9.870;2023-06-22T04:33:29;5.30;;;4.80;;
65463;SDS011;52063;45.110;9.870;2023-06-22T04:35:55;7.90;;;4.70;;
65463;SDS011;52063;45.110;9.870;2023-06-22T04:38:24;8.15;;;4.85;;
65463;SDS011;52063;45.110;9.870;2023-06-22T04:40:50;6.43;;;4.70;;
65463;SDS011;52063;45.110;9.870;2023-06-22T04:43:16;5.57;;;5.03;;
65463;SDS011;52063;45.110;9.870;2023-06-22T04:45:41;5.55;;;4.72;;
65463;SDS011;52063;45.110;9.870;2023-06-22T04:48:07;5.27;;;4.63;;
65463;SDS011;52063;45.110;9.870;2023-06-22T04:50:35;6.90;;;5.15;;
65463;SDS011;52063;45.110;9.870;2023-06-22T04:53:04;7.68;;;5.18;;
65463;SDS011;52063;45.110;9.870;2023-06-22T04:55:31;7.30;;;4.85;;
65463;SDS011;52063;45.110;9.870;2023-06-22T04:57:57;6.83;;;5.17;;
65463;SDS011;52063;45.110;9.870;2023-06-22T05:00:29;4.88;;;4.47;;
65463;SDS011;52063;45.110;9.870;2023-06-22T05:02:55;6.45;;;4.60;;
65463;SDS011;52063;45.110;9.870;2023-06-22T05:05:23;6.35;;;4.40;;
65463;SDS011;52063;45.110;9.870;2023-06-22T05:07:50;8.05;;;5.03;;
65463;SDS011;52063;45.110;9.870;2023-06-22T05:10:20;6.07;;;4.53;;
65463;SDS011;52063;45.110;9.870;2023-06-22T05:12:46;7.13;;;4.70;;
65463;SDS011;52063;45.110;9.870;2023-06-22T05:15:12;6.68;;;4.50;;
65463;SDS011;52063;45.110;9.870;2023-06-22T05:17:37;8.77;;;4.77;;
65463;SDS011;52063;45.110;9.870;2023-06-22T05:20:09;8.05;;;4.72;;
65463;SDS011;52063;45.110;9.870;2023-06-22T05:22:35;6.80;;;4.45;;
65463;SDS011;52063;45.110;9.870;2023-06-22T05:25:00;8.87;;;4.97;;
65463;SDS011;52063;45.110;9.870;2023-06-22T05:27:26;8.70;;;4.72;;
65463;SDS011;52063;45.110;9.870;2023-06-22T05:29:52;6.30;;;5.03;;
65463;SDS011;52063;45.110;9.870;2023-06-22T05:32:17;9.20;;;4.83;;
65463;SDS011;52063;45.110;9.870;2023-06-22T05:34:43;9.85;;;4.65;;
65463;SDS011;52063;45.110;9.870;2023-06-22T05:37:09;7.38;;;4.53;;
65463;SDS011;52063;45.110;9.870;2023-06-22T05:39:34;9.37;;;4.50;;
65463;SDS011;52063;45.110;9.870;2023-06-22T05:42:03;5.50;;;4.15;;
65463;SDS011;52063;45.110;9.870;2023-06-22T05:44:30;7.40;;;4.37;;
65463;SDS011;52063;45.110;9.870;2023-06-22T05:46:56;6.30;;;3.97;;
65463;SDS011;52063;45.110;9.870;2023-06-22T05:49:21;4.40;;;4.00;;
65463;SDS011;52063;45.110;9.870;2023-06-22T05:51:48;7.95;;;4.10;;
65463;SDS011;52063;45.110;9.870;2023-06-22T05:54:13;4.23;;;3.83;;
65463;SDS011;52063;45.110;9.870;2023-06-22T05:56:40;8.45;;;4.35;;
65463;SDS011;52063;45.110;9.870;2023-06-22T05:59:06;9.17;;;4.50;;
65463;SDS011;52063;45.110;9.870;2023-06-22T06:01:31;5.07;;;3.90;;
65463;SDS011;52063;45.110;9.870;2023-06-22T06:03:59;5.10;;;4.20;;
65463;SDS011;52063;45.110;9.870;2023-06-22T06:06:25;7.85;;;4.57;;
65463;SDS011;52063;45.110;9.870;2023-06-22T06:08:53;5.22;;;4.07;;
65463;SDS011;52063;45.110;9.870;2023-06-22T06:11:19;11.57;;;5.30;;
65463;SDS011;52063;45.110;9.870;2023-06-22T06:13:44;9.23;;;4.80;;
65463;SDS011;52063;45.110;9.870;2023-06-22T06:16:10;10.90;;;5.90;;
65463;SDS011;52063;45.110;9.870;2023-06-22T06:18:36;12.03;;;5.20;;
65463;SDS011;52063;45.110;9.870;2023-06-22T06:21:02;11.27;;;5.22;;
65463;SDS011;52063;45.110;9.870;2023-06-22T06:23:28;10.90;;;5.07;;
65463;SDS011;52063;45.110;9.870;2023-06-22T06:25:53;6.70;;;4.60;;
65463;SDS011;52063;45.110;9.870;2023-06-22T06:28:19;14.53;;;6.00;;
65463;SDS011;52063;45.110;9.870;2023-06-22T06:30:44;11.77;;;5.37;;
65463;SDS011;52063;45.110;9.870;2023-06-22T06:33:12;9.63;;;5.40;;
65463;SDS011;52063;45.110;9.870;2023-06-22T06:35:38;10.73;;;5.57;;
65463;SDS011;52063;45.110;9.870;2023-06-22T06:38:03;12.05;;;5.10;;
65463;SDS011;52063;45.110;9.870;2023-06-22T06:40:29;9.63;;;5.27;;
65463;SDS011;52063;45.110;9.870;2023-06-22T06:42:54;12.00;;;4.60;;
65463;SDS011;52063;45.110;9.870;2023-06-22T06:45:21;15.20;;;5.00;;
65463;SDS011;52063;45.110;9.870;2023-06-22T06:47:48;9.38;;;4.63;;
65463;SDS011;52063;45.110;9.870;2023-06-22T06:50:14;8.27;;;4.43;;
65463;SDS011;52063;45.110;9.870;2023-06-22T06:52:40;11.87;;;4.80;;
65463;SDS011;52063;45.110;9.870;2023-06-22T06:55:07;10.90;;;4.97;;
65463;SDS011;52063;45.110;9.870;2023-06-22T06:57:35;10.90;;;4.78;;
65463;SDS011;52063;45.110;9.870;2023-06-22T07:00:03;7.95;;;4.00;;
65463;SDS011;52063;45.110;9.870;2023-06-22T07:02:34;8.32;;;4.95;;
65463;SDS011;52063;45.110;9.870;2023-06-22T07:04:59;7.33;;;4.57;;
65463;SDS011;52063;45.110;9.870;2023-06-22T07:07:25;9.50;;;4.80;;
65463;SDS011;52063;45.110;9.870;2023-06-22T07:09:50;13.60;;;4.70;;
65463;SDS011;52063;45.110;9.870;2023-06-22T07:12:16;8.10;;;4.37;;
65463;SDS011;52063;45.110;9.870;2023-06-22T07:14:41;7.03;;;4.50;;
65463;SDS011;52063;45.110;9.870;2023-06-22T07:17:07;7.93;;;4.40;;
65463;SDS011;52063;45.110;9.870;2023-06-22T07:19:32;10.60;;;4.40;;
65463;SDS011;52063;45.110;9.870;2023-06-22T07:21:58;6.88;;;4.07;;
65463;SDS011;52063;45.110;9.870;2023-06-22T07:24:24;8.63;;;4.13;;
65463;SDS011;52063;45.110;9.870;2023-06-22T07:26:49;5.23;;;4.73;;
65463;SDS011;52063;45.110;9.870;2023-06-22T07:29:18;8.00;;;4.72;;
65463;SDS011;52063;45.110;9.870;2023-06-22T07:31:47;6.47;;;4.68;;
65463;SDS011;52063;45.110;9.870;2023-06-22T07:34:13;7.00;;;4.60;;
65463;SDS011;52063;45.110;9.870;2023-06-22T07:36:38;7.45;;;5.05;;
65463;SDS011;52063;45.110;9.870;2023-06-22T07:39:04;9.97;;;5.00;;
65463;SDS011;52063;45.110;9.870;2023-06-22T07:41:30;15.75;;;6.05;;
65463;SDS011;52063;45.110;9.870;2023-06-22T07:43:56;8.82;;;5.47;;
65463;SDS011;52063;45.110;9.870;2023-06-22T07:46:21;9.37;;;5.03;;
65463;SDS011;52063;45.110;9.870;2023-06-22T07:48:47;9.60;;;4.63;;
65463;SDS011;52063;45.110;9.870;2023-06-22T07:51:13;11.93;;;5.60;;
65463;SDS011;52063;45.110;9.870;2023-06-22T07:53:39;11.10;;;5.20;;
65463;SDS011;52063;45.110;9.870;2023-06-22T07:56:05;10.57;;;5.50;;
65463;SDS011;52063;45.110;9.870;2023-06-22T07:58:32;9.70;;;5.38;;
65463;SDS011;52063;45.110;9.870;2023-06-22T08:00:58;12.27;;;4.60;;
65463;SDS011;52063;45.110;9.870;2023-06-22T08:03:23;8.05;;;5.65;;
65463;SDS011;52063;45.110;9.870;2023-06-22T08:05:49;8.73;;;5.50;;
65463;SDS011;52063;45.110;9.870;2023-06-22T08:08:15;10.35;;;5.40;;
65463;SDS011;52063;45.110;9.870;2023-06-22T08:10:40;9.10;;;4.60;;
65463;SDS011;52063;45.110;9.870;2023-06-22T08:13:07;10.18;;;5.38;;
65463;SDS011;52063;45.110;9.870;2023-06-22T08:15:33;6.00;;;5.03;;
65463;SDS011;52063;45.110;9.870;2023-06-22T08:17:58;11.88;;;5.45;;
65463;SDS011;52063;45.110;9.870;2023-06-22T08:20:25;7.85;;;5.50;;
65463;SDS011;52063;45.110;9.870;2023-06-22T08:22:50;9.40;;;5.30;;
65463;SDS011;52063;45.110;9.870;2023-06-22T08:25:16;11.90;;;5.57;;
65463;SDS011;52063;45.110;9.870;2023-06-22T08:27:44;12.95;;;6.07;;
65463;SDS011;52063;45.110;9.870;2023-06-22T08:30:11;12.33;;;5.00;;
65463;SDS011;52063;45.110;9.870;2023-06-22T08:32:36;7.85;;;5.15;;
65463;SDS011;52063;45.110;9.870;2023-06-22T08:35:02;7.83;;;4.73;;
65463;SDS011;52063;45.110;9.870;2023-06-22T08:37:28;9.65;;;5.28;;
65463;SDS011;52063;45.110;9.870;2023-06-22T08:39:58;10.50;;;5.38;;
65463;SDS011;52063;45.110;9.870;2023-06-22T08:42:31;8.10;;;4.82;;
65463;SDS011;52063;45.110;9.870;2023-06-22T08:44:56;7.53;;;5.30;;
65463;SDS011;52063;45.110;9.870;2023-06-22T08:47:22;11.35;;;5.93;;
65463;SDS011;52063;45.110;9.870;2023-06-22T08:49:48;11.23;;;5.30;;
65463;SDS011;52063;45.110;9.870;2023-06-22T08:52:14;10.30;;;5.90;;
65463;SDS011;52063;45.110;9.870;2023-06-22T08:54:39;9.55;;;5.50;;
65463;SDS011;52063;45.110;9.870;2023-06-22T08:57:05;13.63;;;5.60;;
65463;SDS011;52063;45.110;9.870;2023-06-22T08:59:31;6.40;;;5.30;;
65463;SDS011;52063;45.110;9.870;2023-06-22T09:01:56;9.77;;;6.07;;
65463;SDS011;52063;45.110;9.870;2023-06-22T09:04:22;10.13;;;5.75;;
65463;SDS011;52063;45.110;9.870;2023-06-22T09:06:48;10.83;;;5.37;;
65463;SDS011;52063;45.110;9.870;2023-06-22T09:09:15;9.65;;;5.88;;
65463;SDS011;52063;45.110;9.870;2023-06-22T09:11:41;11.43;;;5.40;;
65463;SDS011;52063;45.110;9.870;2023-06-22T09:14:06;13.07;;;5.75;;
65463;SDS011;52063;45.110;9.870;2023-06-22T09:16:32;13.33;;;6.70;;
65463;SDS011;52063;45.110;9.870;2023-06-22T09:18:57;11.90;;;6.57;;
65463;SDS011;52063;45.110;9.870;2023-06-22T09:21:23;7.77;;;5.77;;
65463;SDS011;52063;45.110;9.870;2023-06-22T09:23:49;12.55;;;6.20;;
65463;SDS011;52063;45.110;9.870;2023-06-22T09:26:17;11.47;;;6.60;;
65463;SDS011;52063;45.110;9.870;2023-06-22T09:28:43;9.85;;;5.70;;
65463;SDS011;52063;45.110;9.870;2023-06-22T09:31:08;14.60;;;6.47;;
65463;SDS011;52063;45.110;9.870;2023-06-22T09:33:34;11.47;;;6.10;;
65463;SDS011;52063;45.110;9.870;2023-06-22T09:36:00;16.00;;;5.88;;
65463;SDS011;52063;45.110;9.870;2023-06-22T09:38:26;10.33;;;5.70;;
65463;SDS011;52063;45.110;9.870;2023-06-22T09:40:51;14.63;;;5.97;;
65463;SDS011;52063;45.110;9.870;2023-06-22T09:43:17;11.55;;;5.93;;
65463;SDS011;52063;45.110;9.870;2023-06-22T09:45:42;14.30;;;6.00;;
65463;SDS011;52063;45.110;9.870;2023-06-22T09:48:08;11.25;;;5.22;;
65463;SDS011;52063;45.110;9.870;2023-06-22T09:50:35;11.55;;;5.53;;
65463;SDS011;52063;45.110;9.870;2023-06-22T09:53:01;12.60;;;5.80;;
65463;SDS011;52063;45.110;9.870;2023-06-22T09:55:27;10.38;;;5.55;;
65463;SDS011;52063;45.110;9.870;2023-06-22T09:57:52;7.60;;;5.50;;
65463;SDS011;52063;45.110;9.870;2023-06-22T10:00:19;10.20;;;5.43;;
65463;SDS011;52063;45.110;9.870;2023-06-22T10:02:46;11.67;;;5.80;;
65463;SDS011;52063;45.110;9.870;2023-06-22T10:05:11;14.90;;;6.65;;
65463;SDS011;52063;45.110;9.870;2023-06-22T10:07:37;13.90;;;5.73;;
65463;SDS011;52063;45.110;9.870;2023-06-22T10:10:07;10.65;;;5.57;;
65463;SDS011;52063;45.110;9.870;2023-06-22T10:12:33;9.85;;;5.50;;
65463;SDS011;52063;45.110;9.870;2023-06-22T10:14:58;9.67;;;5.20;;
65463;SDS011;52063;45.110;9.870;2023-06-22T10:17:24;10.98;;;5.30;;
65463;SDS011;52063;45.110;9.870;2023-06-22T10:19:49;11.20;;;5.20;;
65463;SDS011;52063;45.110;9.870;2023-06-22T10:22:15;11.13;;;5.27;;
65463;SDS011;52063;45.110;9.870;2023-06-22T10:24:40;7.67;;;5.17;;
65463;SDS011;52063;45.110;9.870;2023-06-22T10:27:12;7.53;;;4.80;;
65463;SDS011;52063;45.110;9.870;2023-06-22T10:29:38;11.02;;;5.57;;
65463;SDS011;52063;45.110;9.870;2023-06-22T10:32:04;7.70;;;5.57;;
65463;SDS011;52063;45.110;9.870;2023-06-22T10:34:30;9.70;;;5.10;;
65463;SDS011;52063;45.110;9.870;2023-06-22T10:36:56;7.05;;;4.97;;
65463;SDS011;52063;45.110;9.870;2023-06-22T10:39:21;7.23;;;5.13;;
65463;SDS011;52063;45.110;9.870;2023-06-22T10:41:46;9.23;;;5.27;;
65463;SDS011;52063;45.110;9.870;2023-06-22T10:44:12;8.13;;;4.90;;
65463;SDS011;52063;45.110;9.870;2023-06-22T10:46:38;7.50;;;4.93;;
65463;SDS011;52063;45.110;9.870;2023-06-22T10:49:04;9.25;;;5.53;;
65463;SDS011;52063;45.110;9.870;2023-06-22T10:51:29;6.97;;;4.77;;
65463;SDS011;52063;45.110;9.870;2023-06-22T10:53:56;6.80;;;5.10;;
65463;SDS011;52063;45.110;9.870;2023-06-22T10:56:22;9.20;;;4.93;;
65463;SDS011;52063;45.110;9.870;2023-06-22T10:58:47;11.17;;;5.00;;
65463;SDS011;52063;45.110;9.870;2023-06-22T11:01:13;9.07;;;5.03;;
65463;SDS011;52063;45.110;9.870;2023-06-22T11:03:39;7.97;;;4.90;;
65463;SDS011;52063;45.110;9.870;2023-06-22T11:06:04;9.40;;;5.23;;
65463;SDS011;52063;45.110;9.870;2023-06-22T11:08:30;8.73;;;4.80;;
65463;SDS011;52063;45.110;9.870;2023-06-22T11:10:55;9.65;;;5.00;;
65463;SDS011;52063;45.110;9.870;2023-06-22T11:13:21;11.10;;;5.13;;
65463;SDS011;52063;45.110;9.870;2023-06-22T11:15:46;7.80;;;5.07;;
65463;SDS011;52063;45.110;9.870;2023-06-22T11:18:12;8.50;;;4.90;;
65463;SDS011;52063;45.110;9.870;2023-06-22T11:20:37;5.70;;;4.43;;
65463;SDS011;52063;45.110;9.870;2023-06-22T11:23:06;9.57;;;4.90;;
65463;SDS011;52063;45.110;9.870;2023-06-22T11:25:31;10.50;;;5.10;;
65463;SDS011;52063;45.110;9.870;2023-06-22T11:28:00;8.93;;;4.50;;
65463;SDS011;52063;45.110;9.870;2023-06-22T11:30:27;9.90;;;5.35;;
65463;SDS011;52063;45.110;9.870;2023-06-22T11:32:52;8.63;;;4.73;;
65463;SDS011;52063;45.110;9.870;2023-06-22T11:35:18;7.97;;;4.90;;
65463;SDS011;52063;45.110;9.870;2023-06-22T11:37:43;6.57;;;4.80;;
65463;SDS011;52063;45.110;9.870;2023-06-22T11:40:09;9.50;;;4.70;;
65463;SDS011;52063;45.110;9.870;2023-06-22T11:42:35;10.63;;;5.30;;
65463;SDS011;52063;45.110;9.870;2023-06-22T11:45:00;8.57;;;5.17;;
65463;SDS011;52063;45.110;9.870;2023-06-22T11:47:26;7.03;;;4.82;;
65463;SDS011;52063;45.110;9.870;2023-06-22T11:49:52;7.07;;;4.93;;
65463;SDS011;52063;45.110;9.870;2023-06-22T11:52:18;7.88;;;5.05;;
65463;SDS011;52063;45.110;9.870;2023-06-22T11:54:44;10.88;;;5.57;;
65463;SDS011;52063;45.110;9.870;2023-06-22T11:57:10;9.35;;;5.07;;
65463;SDS011;52063;45.110;9.870;2023-06-22T11:59:36;8.30;;;5.20;;
65463;SDS011;52063;45.110;9.870;2023-06-22T12:02:01;8.57;;;4.97;;
65463;SDS011;52063;45.110;9.870;2023-06-22T12:04:27;9.53;;;5.17;;
65463;SDS011;52063;45.110;9.870;2023-06-22T12:06:53;7.95;;;5.85;;
65463;SDS011;52063;45.110;9.870;2023-06-22T12:09:18;9.03;;;5.57;;
65463;SDS011;52063;45.110;9.870;2023-06-22T12:11:44;10.83;;;5.73;;
65463;SDS011;52063;45.110;9.870;2023-06-22T12:14:09;9.57;;;5.70;;
65463;SDS011;52063;45.110;9.870;2023-06-22T12:16:35;8.13;;;5.40;;
65463;SDS011;52063;45.110;9.870;2023-06-22T12:19:00;10.87;;;5.97;;
65463;SDS011;52063;45.110;9.870;2023-06-22T12:21:26;12.17;;;5.43;;
65463;SDS011;52063;45.110;9.870;2023-06-22T12:23:51;8.97;;;5.13;;
65463;SDS011;52063;45.110;9.870;2023-06-22T12:26:16;8.50;;;5.40;;
65463;SDS011;52063;45.110;9.870;2023-06-22T12:28:42;12.57;;;5.87;;
65463;SDS011;52063;45.110;9.870;2023-06-22T12:31:07;8.90;;;5.15;;
65463;SDS011;52063;45.110;9.870;2023-06-22T12:33:33;12.37;;;5.30;;
65463;SDS011;52063;45.110;9.870;2023-06-22T12:35:58;9.20;;;5.13;;
65463;SDS011;52063;45.110;9.870;2023-06-22T12:38:24;7.32;;;4.95;;
65463;SDS011;52063;45.110;9.870;2023-06-22T12:40:51;9.70;;;5.80;;
65463;SDS011;52063;45.110;9.870;2023-06-22T12:43:17;6.57;;;5.28;;
65463;SDS011;52063;45.110;9.870;2023-06-22T12:45:43;9.65;;;5.38;;
65463;SDS011;52063;45.110;9.870;2023-06-22T12:48:08;8.03;;;5.67;;
65463;SDS011;52063;45.110;9.870;2023-06-22T12:50:34;9.20;;;5.05;;
65463;SDS011;52063;45.110;9.870;2023-06-22T12:53:00;6.43;;;5.10;;
65463;SDS011;52063;45.110;9.870;2023-06-22T12:55:27;10.05;;;5.15;;
65463;SDS011;52063;45.110;9.870;2023-06-22T12:57:53;9.60;;;5.27;;
65463;SDS011;52063;45.110;9.870;2023-06-22T13:00:18;11.57;;;5.80;;
65463;SDS011;52063;45.110;9.870;2023-06-22T13:02:44;8.57;;;5.40;;
65463;SDS011;52063;45.110;9.870;2023-06-22T13:05:10;9.53;;;5.60;;
65463;SDS011;52063;45.110;9.870;2023-06-22T13:07:35;13.57;;;5.47;;
65463;SDS011;52063;45.110;9.870;2023-06-22T13:10:01;9.10;;;5.53;;
65463;SDS011;52063;45.110;9.870;2023-06-22T13:12:27;9.37;;;4.77;;
65463;SDS011;52063;45.110;9.870;2023-06-22T13:14:52;6.05;;;4.65;;
65463;SDS011;52063;45.110;9.870;2023-06-22T13:17:18;8.97;;;4.83;;
65463;SDS011;52063;45.110;9.870;2023-06-22T13:19:43;9.67;;;5.17;;
65463;SDS011;52063;45.110;9.870;2023-06-22T13:25:10;9.80;;;5.03;;
65463;SDS011;52063;45.110;9.870;2023-06-22T13:27:38;10.27;;;5.07;;
65463;SDS011;52063;45.110;9.870;2023-06-22T13:30:04;9.93;;;5.68;;
65463;SDS011;52063;45.110;9.870;2023-06-22T13:32:30;10.30;;;5.50;;
65463;SDS011;52063;45.110;9.870;2023-06-22T13:34:55;10.60;;;5.33;;
65463;SDS011;52063;45.110;9.870;2023-06-22T13:37:21;10.57;;;5.32;;
65463;SDS011;52063;45.110;9.870;2023-06-22T13:39:46;9.73;;;4.80;;
65463;SDS011;52063;45.110;9.870;2023-06-22T13:42:12;6.80;;;4.37;;
65463;SDS011;52063;45.110;9.870;2023-06-22T13:44:37;7.87;;;4.63;;
65463;SDS011;52063;45.110;9.870;2023-06-22T13:47:03;7.38;;;5.13;;
65463;SDS011;52063;45.110;9.870;2023-06-22T13:49:30;10.87;;;4.80;;
65463;SDS011;52063;45.110;9.870;2023-06-22T13:51:55;11.52;;;5.00;;
65463;SDS011;52063;45.110;9.870;2023-06-22T13:54:21;6.63;;;4.80;;
65463;SDS011;52063;45.110;9.870;2023-06-22T13:56:46;8.00;;;4.88;;
65463;SDS011;52063;45.110;9.870;2023-06-22T13:59:12;9.33;;;5.03;;
65463;SDS011;52063;45.110;9.870;2023-06-22T14:01:37;7.32;;;4.88;;
65463;SDS011;52063;45.110;9.870;2023-06-22T14:04:05;6.93;;;4.70;;
65463;SDS011;52063;45.110;9.870;2023-06-22T14:06:30;8.82;;;4.93;;
65463;SDS011;52063;45.110;9.870;2023-06-22T14:08:56;8.23;;;4.13;;
65463;SDS011;52063;45.110;9.870;2023-06-22T14:11:21;13.52;;;5.32;;
65463;SDS011;52063;45.110;9.870;2023-06-22T14:13:47;9.90;;;4.73;;
65463;SDS011;52063;45.110;9.870;2023-06-22T14:16:12;11.17;;;4.87;;
65463;SDS011;52063;45.110;9.870;2023-06-22T14:18:38;14.23;;;5.20;;
65463;SDS011;52063;45.110;9.870;2023-06-22T14:21:03;7.77;;;4.47;;
65463;SDS011;52063;45.110;9.870;2023-06-22T14:23:29;7.60;;;4.67;;
65463;SDS011;52063;45.110;9.870;2023-06-22T14:25:54;13.40;;;4.73;;
65463;SDS011;52063;45.110;9.870;2023-06-22T14:28:20;8.77;;;4.60;;
65463;SDS011;52063;45.110;9.870;2023-06-22T14:30:45;10.13;;;5.07;;
65463;SDS011;52063;45.110;9.870;2023-06-22T14:33:11;9.17;;;4.77;;
65463;SDS011;52063;45.110;9.870;2023-06-22T14:35:37;7.97;;;4.70;;
65463;SDS011;52063;45.110;9.870;2023-06-22T14:38:03;10.30;;;5.15;;
65463;SDS011;52063;45.110;9.870;2023-06-22T14:40:28;7.50;;;4.77;;
65463;SDS011;52063;45.110;9.870;2023-06-22T14:42:53;7.40;;;4.30;;
65463;SDS011;52063;45.110;9.870;2023-06-22T14:45:21;7.28;;;4.72;;